createdAt,value
2023-04-15T00:01:48.758Z,6.55
2023-04-15T00:04:15.594Z,6.72
2023-04-15T00:06:42.290Z,6.46
2023-04-15T00:09:09.063Z,6.60
2023-04-15T00:11:35.845Z,6.59
2023-04-15T00:14:02.548Z,6.53
2023-04-15T00:16:29.387Z,6.31
2023-04-15T00:18:57.109Z,6.37
2023-04-15T00:21:23.716Z,6.54
2023-04-15T00:34:00.698Z,6.19
2023-04-15T00:36:27.903Z,6.11
2023-04-15T00:38:54.783Z,6.23
2023-04-15T00:41:21.646Z,6.02
2023-04-15T00:43:48.290Z,5.93
2023-04-15T00:46:17.557Z,5.89
2023-04-15T00:48:44.360Z,5.97
2023-04-15T00:51:11.027Z,5.81
2023-04-15T00:53:37.801Z,5.81
2023-04-15T00:56:04.843Z,6.03
2023-04-15T00:58:31.495Z,6.16
2023-04-15T01:00:59.260Z,6.10
2023-04-15T01:03:26.172Z,6.18
2023-04-15T01:05:58.416Z,6.27
2023-04-15T01:08:29.126Z,6.20
2023-04-15T01:10:57.573Z,6.09
2023-04-15T01:13:25.147Z,6.06
2023-04-15T01:15:52.612Z,6.06
2023-04-15T01:18:19.998Z,6.11
2023-04-15T01:20:46.911Z,5.78
2023-04-15T01:23:13.834Z,6.04
2023-04-15T01:25:42.117Z,6.16
2023-04-15T01:28:09.758Z,6.19
2023-04-15T01:30:36.886Z,5.98
2023-04-15T01:33:03.615Z,5.92
2023-04-15T01:35:30.198Z,5.71
2023-04-15T01:38:08.658Z,5.63
2023-04-15T01:40:36.182Z,5.34
2023-04-15T01:43:04.009Z,5.38
2023-04-15T01:45:30.735Z,5.60
2023-04-15T01:47:57.611Z,5.66
2023-04-15T01:50:24.338Z,5.70
2023-04-15T01:52:51.295Z,5.50
2023-04-15T01:55:17.933Z,5.71
2023-04-15T01:57:44.664Z,5.31
2023-04-15T02:00:11.823Z,5.11
2023-04-15T02:02:39.175Z,5.30
2023-04-15T02:05:06.393Z,5.54
2023-04-15T02:07:33.048Z,5.65
2023-04-15T02:09:59.759Z,5.75
2023-04-15T02:12:26.409Z,5.88
2023-04-15T02:14:53.661Z,5.66
2023-04-15T02:17:20.319Z,5.54
2023-04-15T02:19:46.975Z,5.66
2023-04-15T02:22:18.680Z,5.70
2023-04-15T02:24:46.880Z,5.50
2023-04-15T02:27:17.891Z,5.51
2023-04-15T02:29:45.979Z,5.53
2023-04-15T02:32:13.398Z,5.65
2023-04-15T02:34:41.672Z,5.45
2023-04-15T02:37:13.190Z,5.29
2023-04-15T02:39:40.026Z,5.22
2023-04-15T02:42:06.739Z,5.07
2023-04-15T02:44:34.459Z,4.73
2023-04-15T02:47:01.148Z,4.91
2023-04-15T02:55:02.926Z,5.31
2023-04-15T02:57:29.902Z,5.35
2023-04-15T02:59:56.571Z,5.38
2023-04-15T03:02:23.549Z,5.08
2023-04-15T03:04:50.256Z,5.05
2023-04-15T03:07:18.239Z,5.22
2023-04-15T03:09:46.090Z,5.28
2023-04-15T03:12:12.780Z,5.32
2023-04-15T03:14:39.422Z,5.31
2023-04-15T03:17:06.162Z,5.35
2023-04-15T03:19:33.249Z,5.49
2023-04-15T03:21:59.947Z,5.48
2023-04-15T03:24:26.653Z,5.44
2023-04-15T03:26:53.438Z,5.45
2023-04-15T03:29:20.136Z,5.50
2023-04-15T03:31:47.154Z,5.56
2023-04-15T03:34:13.797Z,5.55
2023-04-15T03:36:40.849Z,5.55
2023-04-15T03:39:07.526Z,5.37
2023-04-15T03:41:34.216Z,5.37
2023-04-15T03:44:00.914Z,5.30
2023-04-15T03:46:28.108Z,5.17
2023-04-15T03:48:54.792Z,5.16
2023-04-15T03:51:21.656Z,5.15
2023-04-15T03:53:48.344Z,5.17
2023-04-15T03:56:15.037Z,5.26
2023-04-15T03:58:41.748Z,5.26
2023-04-15T04:01:08.666Z,5.27
2023-04-15T04:03:35.596Z,5.13
2023-04-15T04:06:02.414Z,5.04
2023-04-15T04:08:29.045Z,4.96
2023-04-15T04:10:55.709Z,5.26
2023-04-15T04:13:22.319Z,5.10
2023-04-15T04:15:49.096Z,4.99
2023-04-15T04:18:15.832Z,4.94
2023-04-15T04:20:42.712Z,5.00
2023-04-15T04:23:09.386Z,5.02
2023-04-15T04:28:13.036Z,5.07
2023-04-15T04:30:40.767Z,5.12
2023-04-15T04:33:07.872Z,5.08
2023-04-15T04:35:37.802Z,5.08
2023-04-15T04:38:04.834Z,5.09
2023-04-15T04:40:31.555Z,5.17
2023-04-15T04:42:58.304Z,5.10
2023-04-15T04:45:24.996Z,5.20
2023-04-15T04:47:51.740Z,5.18
2023-04-15T04:50:18.363Z,5.09
2023-04-15T04:52:45.048Z,4.87
2023-04-15T04:55:11.878Z,4.72
2023-04-15T04:57:39.795Z,4.87
2023-04-15T05:00:08.717Z,4.80
2023-04-15T05:02:36.279Z,4.72
2023-04-15T05:05:03.220Z,4.81
2023-04-15T05:07:29.881Z,4.62
2023-04-15T05:09:56.866Z,4.67
2023-04-15T05:12:23.573Z,4.80
2023-04-15T05:14:50.205Z,4.70
2023-04-15T05:17:16.785Z,4.78
2023-04-15T05:19:43.419Z,4.86
2023-04-15T05:22:10.189Z,5.00
2023-04-15T05:24:36.884Z,4.74
2023-04-15T05:27:03.915Z,4.80
2023-04-15T05:29:30.911Z,4.74
2023-04-15T05:31:57.703Z,4.79
2023-04-15T05:36:55.650Z,4.86
2023-04-15T05:39:22.259Z,4.96
2023-04-15T05:41:48.992Z,4.94
2023-04-15T05:44:15.651Z,4.99
2023-04-15T05:46:42.643Z,4.96
2023-04-15T05:49:09.426Z,5.05
2023-04-15T05:51:36.268Z,5.00
2023-04-15T05:56:34.415Z,5.11
2023-04-15T05:59:01.200Z,5.21
2023-04-15T06:01:27.961Z,5.31
2023-04-15T06:03:54.731Z,5.44
2023-04-15T06:06:21.786Z,5.46
2023-04-15T06:08:48.447Z,5.41
2023-04-15T06:11:15.075Z,5.43
2023-04-15T06:13:41.700Z,5.49
2023-04-15T06:16:08.400Z,5.43
2023-04-15T06:18:35.128Z,5.53
2023-04-15T06:23:36.624Z,5.53
2023-04-15T06:28:35.239Z,5.62
2023-04-15T06:31:02.206Z,5.78
2023-04-15T06:33:29.095Z,5.95
2023-04-15T06:35:55.788Z,6.01
2023-04-15T06:38:22.454Z,6.25
2023-04-15T06:40:49.107Z,6.40
2023-04-15T06:43:15.774Z,6.39
2023-04-15T06:45:42.482Z,6.24
2023-04-15T06:48:09.197Z,6.49
2023-04-15T06:50:35.958Z,6.71
2023-04-15T06:53:03.283Z,6.61
2023-04-15T06:55:30.008Z,6.56
2023-04-15T06:57:56.705Z,6.47
2023-04-15T07:00:23.567Z,6.57
2023-04-15T07:02:50.298Z,6.46
2023-04-15T07:05:17.225Z,6.68
2023-04-15T07:07:43.894Z,6.64
2023-04-15T07:10:12.281Z,6.33
2023-04-15T07:12:39.114Z,6.50
2023-04-15T07:15:06.932Z,6.73
2023-04-15T07:17:33.672Z,6.90
2023-04-15T07:20:00.580Z,7.07
2023-04-15T07:22:27.242Z,7.27
2023-04-15T07:24:54.107Z,7.48
2023-04-15T07:27:21.203Z,7.61
2023-04-15T07:29:48.940Z,7.73
2023-04-15T07:32:15.631Z,7.90
2023-04-15T07:34:42.473Z,8.14
2023-04-15T07:37:09.116Z,8.11
2023-04-15T07:39:35.861Z,10.96
2023-04-15T07:42:02.720Z,10.46
2023-04-15T07:44:29.424Z,9.85
2023-04-15T07:46:56.917Z,9.48
2023-04-15T07:49:23.719Z,9.40
2023-04-15T07:51:50.821Z,9.09
2023-04-15T07:54:17.518Z,9.07
2023-04-15T07:56:44.231Z,9.28
2023-04-15T07:59:11.851Z,9.27
2023-04-15T08:01:39.253Z,9.67
2023-04-15T08:04:06.062Z,10.18
2023-04-15T08:06:33.435Z,10.63
2023-04-15T08:09:00.523Z,10.82
2023-04-15T08:11:27.983Z,10.81
2023-04-15T08:13:54.827Z,11.16
2023-04-15T08:16:23.674Z,11.49
2023-04-15T08:18:52.992Z,11.49
2023-04-15T08:21:20.436Z,11.45
2023-04-15T08:23:52.278Z,11.45
2023-04-15T08:26:20.338Z,11.68
2023-04-15T08:28:47.453Z,11.90
2023-04-15T08:31:18.662Z,11.91
2023-04-15T08:33:46.026Z,12.43
2023-04-15T08:36:14.181Z,12.61
2023-04-15T08:38:41.278Z,12.70
2023-04-15T08:41:16.534Z,12.88
2023-04-15T08:43:52.612Z,13.48
2023-04-15T08:46:19.813Z,13.57
2023-04-15T08:48:48.733Z,13.65
2023-04-15T08:51:17.369Z,13.81
2023-04-15T08:53:46.748Z,13.76
2023-04-15T08:56:15.896Z,13.86
2023-04-15T08:58:45.133Z,13.51
2023-04-15T09:01:14.587Z,13.61
2023-04-15T09:03:42.215Z,13.63
2023-04-15T09:06:09.055Z,13.53
2023-04-15T09:08:36.066Z,13.76
2023-04-15T09:11:03.646Z,13.97
2023-04-15T09:13:31.203Z,14.01
2023-04-15T09:15:58.727Z,14.08
2023-04-15T09:18:33.245Z,14.27
2023-04-15T09:21:14.288Z,13.99
2023-04-15T09:23:54.017Z,13.76
2023-04-15T09:26:20.725Z,13.73
2023-04-15T09:28:47.369Z,13.82
2023-04-15T09:31:14.058Z,13.86
2023-04-15T09:33:58.884Z,13.90
2023-04-15T09:36:25.820Z,13.87
2023-04-15T09:38:57.626Z,14.03
2023-04-15T09:41:25.225Z,14.21
2023-04-15T09:43:52.136Z,14.32
2023-04-15T09:46:19.149Z,14.51
2023-04-15T09:48:46.207Z,14.44
2023-04-15T09:51:12.950Z,14.27
2023-04-15T09:53:39.674Z,14.14
2023-04-15T09:56:08.196Z,14.02
2023-04-15T09:58:36.386Z,14.44
2023-04-15T10:01:09.496Z,14.62
2023-04-15T10:03:39.307Z,14.70
2023-04-15T10:08:43.903Z,15.40
2023-04-15T10:11:10.757Z,16.11
2023-04-15T10:13:39.140Z,16.56
2023-04-15T10:16:14.602Z,16.35
2023-04-15T10:18:47.989Z,15.58
2023-04-15T10:21:18.681Z,15.28
2023-04-15T10:23:46.275Z,15.39
2023-04-15T10:26:15.083Z,15.09
2023-04-15T10:28:41.929Z,15.13
2023-04-15T10:33:44.763Z,15.10
2023-04-15T10:36:12.199Z,15.31
2023-04-15T10:38:43.555Z,15.40
2023-04-15T10:41:21.290Z,15.86
2023-04-15T10:43:55.065Z,15.94
2023-04-15T10:46:24.749Z,16.17
2023-04-15T10:48:53.155Z,16.09
2023-04-15T10:51:31.076Z,16.31
2023-04-15T10:53:59.963Z,16.17
2023-04-15T10:56:29.437Z,15.81
2023-04-15T10:58:56.080Z,15.56
2023-04-15T11:01:25.719Z,15.71
2023-04-15T11:06:45.232Z,15.42
2023-04-15T11:09:32.622Z,15.29
2023-04-15T11:12:06.381Z,15.32
2023-04-15T11:14:34.739Z,15.53
2023-04-15T11:17:01.797Z,15.21
2023-04-15T11:19:36.324Z,15.45
2023-04-15T11:22:10.521Z,15.62
2023-04-15T11:24:46.986Z,15.43
2023-04-15T11:27:25.464Z,15.44
2023-04-15T11:29:53.313Z,15.31
2023-04-15T11:32:21.907Z,15.31
2023-04-15T11:34:49.195Z,15.16
2023-04-15T11:37:15.833Z,15.14
2023-04-15T11:39:42.521Z,15.08
2023-04-15T11:42:18.939Z,14.60
2023-04-15T11:44:45.890Z,14.61
2023-04-15T11:47:25.245Z,14.75
2023-04-15T11:49:51.960Z,14.86
2023-04-15T11:52:19.238Z,14.96
2023-04-15T11:54:45.937Z,15.05
2023-04-15T11:57:12.607Z,15.18
2023-04-15T11:59:46.353Z,14.96
2023-04-15T12:02:14.439Z,14.80
2023-04-15T12:04:41.740Z,14.32
2023-04-15T12:07:08.822Z,14.12
2023-04-15T12:09:38.381Z,13.63
2023-04-15T12:12:05.092Z,13.77
2023-04-15T12:14:32.948Z,13.68
2023-04-15T12:17:02.323Z,13.83
2023-04-15T12:19:40.229Z,13.68
2023-04-15T12:22:11.466Z,13.65
2023-04-15T12:24:39.068Z,13.67
2023-04-15T12:29:44.143Z,12.97
2023-04-15T12:32:13.157Z,12.67
2023-04-15T12:34:45.398Z,12.48
2023-04-15T12:37:14.504Z,12.40
2023-04-15T12:39:43.435Z,12.21
2023-04-15T12:42:11.001Z,12.26
2023-04-15T12:44:39.196Z,12.13
2023-04-15T12:47:07.062Z,12.10
2023-04-15T12:49:33.897Z,12.14
2023-04-15T12:52:02.471Z,11.98
2023-04-15T12:54:30.439Z,11.86
2023-04-15T12:56:58.633Z,11.98
2023-04-15T12:59:25.517Z,12.00
2023-04-15T13:01:54.606Z,12.11
2023-04-15T13:06:59.522Z,12.01
2023-04-15T13:09:26.235Z,12.06
2023-04-15T13:11:53.221Z,12.12
2023-04-15T13:14:20.245Z,12.15
2023-04-15T13:16:47.389Z,12.15
2023-04-15T13:19:14.541Z,12.37
2023-04-15T13:21:41.647Z,12.46
2023-04-15T13:24:08.683Z,12.44
2023-04-15T13:26:36.289Z,12.35
2023-04-15T13:29:03.024Z,12.45
2023-04-15T13:31:29.706Z,12.62
2023-04-15T13:33:57.656Z,12.56
2023-04-15T13:36:24.522Z,12.64
2023-04-15T13:38:51.754Z,12.75
2023-04-15T13:41:18.638Z,12.64
2023-04-15T13:43:45.265Z,12.47
2023-04-15T13:46:12.178Z,12.40
2023-04-15T13:48:38.975Z,12.44
2023-04-15T13:51:05.753Z,12.37
2023-04-15T13:53:38.108Z,12.34
2023-04-15T13:56:06.387Z,12.30
2023-04-15T13:58:33.100Z,12.32
2023-04-15T14:00:59.778Z,12.37
2023-04-15T14:03:26.592Z,12.22
2023-04-15T14:05:56.217Z,12.22
2023-04-15T14:08:23.300Z,12.25
2023-04-15T14:10:49.963Z,12.23
2023-04-15T14:13:16.689Z,12.34
2023-04-15T14:15:43.366Z,12.11
2023-04-15T14:20:47.241Z,12.13
2023-04-15T14:23:13.889Z,12.08
2023-04-15T14:25:40.670Z,12.04
2023-04-15T14:28:07.456Z,11.89
2023-04-15T14:30:34.402Z,11.89
2023-04-15T14:33:01.366Z,11.87
2023-04-15T14:37:59.516Z,11.93
2023-04-15T14:40:26.152Z,11.94
2023-04-15T14:42:52.796Z,11.82
2023-04-15T14:45:19.467Z,11.84
2023-04-15T14:47:47.287Z,11.85
2023-04-15T14:50:14.000Z,11.75
2023-04-15T14:52:40.684Z,11.67
2023-04-15T14:55:08.962Z,11.67
2023-04-15T14:57:36.231Z,11.70
2023-04-15T15:00:04.354Z,11.74
2023-04-15T15:02:38.883Z,11.79
2023-04-15T15:05:07.434Z,11.72
2023-04-15T15:07:34.207Z,11.69
2023-04-15T15:10:01.029Z,11.67
2023-04-15T15:12:27.730Z,11.57
2023-04-15T15:14:56.045Z,11.49
2023-04-15T15:17:22.950Z,11.37
2023-04-15T15:19:49.814Z,11.37
2023-04-15T15:22:16.608Z,11.25
2023-04-15T15:24:43.321Z,11.26
2023-04-15T15:27:10.244Z,11.23
2023-04-15T15:29:38.381Z,11.14
2023-04-15T15:32:05.628Z,11.17
2023-04-15T15:37:03.582Z,11.24
2023-04-15T15:39:30.313Z,11.13
2023-04-15T15:41:57.027Z,11.08
2023-04-15T15:44:23.712Z,11.05
2023-04-15T15:46:50.722Z,11.06
2023-04-15T15:49:17.557Z,11.05
2023-04-15T15:51:44.238Z,11.12
2023-04-15T15:54:10.924Z,11.04
2023-04-15T15:56:39.611Z,11.05
2023-04-15T15:59:06.505Z,10.96
2023-04-15T16:01:33.481Z,10.94
2023-04-15T16:04:01.069Z,10.89
2023-04-15T16:06:28.390Z,10.75
2023-04-15T16:08:55.057Z,10.71
2023-04-15T16:11:21.867Z,10.55
2023-04-15T16:13:48.637Z,10.37
2023-04-15T16:16:15.452Z,10.30
2023-04-15T16:18:42.250Z,10.26
2023-04-15T16:21:09.051Z,10.06
2023-04-15T16:23:36.824Z,9.96
2023-04-15T16:26:03.648Z,9.96
2023-04-15T16:28:30.277Z,9.95
2023-04-15T16:30:57.377Z,10.04
2023-04-15T16:33:24.216Z,9.89
2023-04-15T16:35:51.387Z,9.88
2023-04-15T16:38:18.373Z,9.93
2023-04-15T16:40:45.034Z,9.93
2023-04-15T16:43:11.666Z,9.83
2023-04-15T16:45:38.782Z,9.80
2023-04-15T16:48:06.001Z,9.81
2023-04-15T16:50:32.767Z,9.76
2023-04-15T16:52:59.519Z,9.73
2023-04-15T16:55:26.351Z,9.65
2023-04-15T16:58:02.117Z,9.55
2023-04-15T17:00:30.830Z,9.46
2023-04-15T17:02:57.970Z,9.54
2023-04-15T17:05:24.908Z,9.53
2023-04-15T17:07:51.577Z,9.57
2023-04-15T17:10:18.221Z,9.48
2023-04-15T17:12:44.931Z,9.50
2023-04-15T17:15:11.695Z,9.46
2023-04-15T17:17:38.490Z,9.44
2023-04-15T17:20:05.736Z,9.42
2023-04-15T17:22:33.679Z,9.29
2023-04-15T17:25:00.402Z,9.31
2023-04-15T17:27:29.016Z,9.21
2023-04-15T17:29:55.786Z,9.03
2023-04-15T17:32:23.230Z,8.98
2023-04-15T17:34:51.440Z,9.14
2023-04-15T17:37:18.783Z,9.05
2023-04-15T17:47:27.826Z,8.87
2023-04-15T17:50:00.563Z,8.77
2023-04-15T17:52:33.410Z,8.80
2023-04-15T17:55:07.647Z,8.62
2023-04-15T17:57:40.424Z,8.70
2023-04-15T18:00:13.820Z,8.66
2023-04-15T18:02:48.896Z,8.63
2023-04-15T18:05:21.984Z,8.61
2023-04-15T18:07:55.604Z,8.69
2023-04-15T18:10:28.299Z,8.68
2023-04-15T18:13:03.501Z,8.73
2023-04-15T18:15:36.301Z,8.81
2023-04-15T18:18:09.126Z,8.83
2023-04-15T18:20:41.834Z,8.81
2023-04-15T18:23:14.705Z,8.83
2023-04-15T18:25:47.456Z,8.76
2023-04-15T18:28:22.277Z,8.90
2023-04-15T18:30:55.016Z,8.87
2023-04-15T18:33:27.890Z,8.79
2023-04-15T18:38:40.466Z,8.87
2023-04-15T18:41:08.805Z,8.87
2023-04-15T18:43:36.546Z,8.78
2023-04-15T18:46:04.100Z,8.83
2023-04-15T18:48:30.805Z,8.88
2023-04-15T18:50:58.657Z,8.79
2023-04-15T18:53:25.350Z,8.80
2023-04-15T18:55:51.981Z,8.78
2023-04-15T18:58:18.591Z,8.82
2023-04-15T19:00:45.343Z,8.84
2023-04-15T19:03:12.036Z,8.71
2023-04-15T19:05:39.000Z,8.80
2023-04-15T19:08:05.949Z,8.74
2023-04-15T19:10:34.512Z,8.68
2023-04-15T19:13:01.351Z,8.74
2023-04-15T19:15:27.972Z,8.78
2023-04-15T19:17:54.999Z,8.74
2023-04-15T19:20:21.852Z,8.78
2023-04-15T19:22:48.552Z,8.72
2023-04-15T19:25:15.257Z,8.76
2023-04-15T19:27:41.921Z,8.70
2023-04-15T19:30:09.130Z,8.72
2023-04-15T19:32:36.441Z,8.71
2023-04-15T19:35:03.270Z,8.71
2023-04-15T19:37:30.336Z,8.62
2023-04-15T19:39:57.053Z,8.58
2023-04-15T19:42:23.686Z,8.48
2023-04-15T19:44:50.332Z,8.56
2023-04-15T19:47:17.075Z,8.49
2023-04-15T19:52:15.109Z,8.49
2023-04-15T19:54:41.839Z,8.71
2023-04-15T19:57:08.470Z,8.66
2023-04-15T19:59:35.176Z,8.68
2023-04-15T20:02:02.524Z,8.52
2023-04-15T20:04:29.481Z,8.57
2023-04-15T20:06:56.354Z,8.52
2023-04-15T20:09:22.963Z,8.51
2023-04-15T20:12:46.123Z,8.47
2023-04-15T20:14:36.275Z,8.42
2023-04-15T20:17:02.951Z,8.54
2023-04-15T20:19:29.599Z,8.56
2023-04-15T20:21:56.256Z,8.62
2023-04-15T20:24:24.434Z,8.58
2023-04-15T20:26:51.099Z,8.50
2023-04-15T20:29:17.824Z,8.68
2023-04-15T20:31:44.568Z,8.59
2023-04-15T20:34:12.130Z,8.58
2023-04-15T20:36:38.877Z,8.49
2023-04-15T20:39:05.877Z,8.41
2023-04-15T20:41:38.871Z,8.45
2023-04-15T20:44:11.636Z,8.49
2023-04-15T20:52:00.061Z,8.48
2023-04-15T20:54:26.674Z,8.53
2023-04-15T20:56:53.254Z,8.56
2023-04-15T20:59:20.000Z,8.58
2023-04-15T21:01:46.684Z,8.58
2023-04-15T21:04:13.316Z,8.51
2023-04-15T21:06:39.983Z,8.50
2023-04-15T21:09:06.760Z,8.48
2023-04-15T21:11:53.335Z,8.47
2023-04-15T21:14:20.222Z,8.54
2023-04-15T21:19:18.115Z,8.47
2023-04-15T21:21:44.749Z,8.46
2023-04-15T21:24:11.424Z,8.53
2023-04-15T21:26:38.074Z,8.49
2023-04-15T21:29:04.949Z,8.53
2023-04-15T21:31:32.089Z,8.50
2023-04-15T21:33:58.719Z,8.39
2023-04-15T21:36:25.994Z,8.32
2023-04-15T21:38:52.688Z,8.44
2023-04-15T21:41:19.355Z,8.48
2023-04-15T21:43:46.069Z,8.51
2023-04-15T21:46:22.343Z,8.45
2023-04-15T21:48:52.578Z,8.38
2023-04-15T21:51:19.253Z,8.49
2023-04-15T21:53:46.030Z,8.41
2023-04-15T21:56:12.724Z,8.43
2023-04-15T21:58:39.331Z,8.43
2023-04-15T22:01:06.172Z,8.47
2023-04-15T22:03:34.517Z,8.58
2023-04-15T22:06:04.939Z,8.53
2023-04-15T22:08:38.671Z,8.56
2023-04-15T22:11:23.181Z,8.53
2023-04-15T22:13:49.886Z,8.46
2023-04-15T22:16:16.877Z,8.55
2023-04-15T22:18:43.597Z,8.54
2023-04-15T22:21:10.518Z,8.55
2023-04-15T22:23:37.157Z,8.60
2023-04-15T22:26:05.043Z,8.49
2023-04-15T22:28:31.706Z,8.51
2023-04-15T22:30:59.160Z,8.47
2023-04-15T22:33:25.908Z,8.42
2023-04-15T22:35:52.485Z,8.50
2023-04-15T22:38:19.120Z,8.51
2023-04-15T22:40:46.567Z,8.53
2023-04-15T22:43:13.277Z,8.45
2023-04-15T22:45:39.949Z,8.45
2023-04-15T22:48:06.619Z,8.54
2023-04-15T22:53:10.728Z,8.55
2023-04-15T22:55:37.453Z,8.46
2023-04-15T22:58:04.092Z,8.49
2023-04-15T23:00:30.910Z,8.53
2023-04-15T23:02:57.736Z,8.42
2023-04-15T23:05:24.682Z,8.45
2023-04-15T23:07:51.462Z,8.46
2023-04-15T23:10:18.094Z,8.51
2023-04-15T23:12:44.879Z,8.46
2023-04-15T23:15:13.497Z,8.57
2023-04-15T23:17:40.211Z,8.50
2023-04-15T23:20:07.357Z,8.47
2023-04-15T23:22:37.736Z,8.56
2023-04-15T23:25:07.333Z,8.53
2023-04-15T23:27:33.955Z,8.45
2023-04-15T23:30:00.619Z,8.44
2023-04-15T23:32:27.604Z,8.50
2023-04-15T23:34:54.484Z,8.46
2023-04-15T23:37:21.154Z,8.47
2023-04-15T23:39:47.848Z,8.43
2023-04-15T23:42:14.468Z,8.40
2023-04-15T23:44:41.154Z,8.47
2023-04-15T23:47:07.782Z,8.39
2023-04-15T23:49:34.484Z,8.45
2023-04-15T23:52:01.196Z,8.43
2023-04-15T23:54:27.829Z,8.46
2023-04-15T23:56:54.407Z,8.45
2023-04-15T23:59:21.032Z,8.52
